Rechercher aéroport 
image banner adimage banner ad
image banner ad

SECO - Coca / Francisco De Orellana

Situé à Coca, Ecuador

ICAO - SECO, IATA - OCC

Données fournies par Airmate  

Information générale

Coordonnées: S0°27'28" W76°59'22"
Élévation : 833 feet MSL.
 
Voir autres Aéroports à Orellana

Données opérationnelles

Accessible au public
Heure actuelle UTC:
Heure actuelle locale:
Météo
METAR: SECO 010000Z 18004KT 9999 FEW015 BKN090 25/24 Q1012 RMK A2989
Voir NOTAMs / SUP AIP / TFR affectant cet aéroport [VIEW]
Fréquences de communication: [VIEW]

Pistes:

Identifiant RWYQFULongueur (ft)Largeur (ft)SurfaceLDA (ft)
16154°754698
34334°754698

Coordonnées de l'aéroport

Adresse: Coca Ecuador

Vue satellite de SECO